Главная страница
METAR-TAF:

METAR-TAF

Аэропорты :

Харьков, Украина

широта: 49-58N, долгота: 036-08E, высота над уровнем моря: 154 м

Текущие метеонаблюдения

Эта сводка был подготовлена 30 минут назад, в 05:00 UTC
Ветер 6 Узел от юго-восточный
Температура 2°C
Влажность 93%
Давление 1025 hPa
Видимость: 8000 м

METAR: UKHH 190500Z 13003MPS 8000 NSC 02/01 Q1025 R07/0///72 NOSIG

Время: 07:30 (05:30 UTC)

Прогноз

Эта сводка был подготовлена 6 часа и 20 минут назад, в 23:10 UTC
Прогноз действительный с 19-го 00 UTC до 19-го 24 UTC
Ветер 10 Узел от юго-юго-восточный
Видимость: 6000 м
Рассеянная облачность на высоте 1300 фута
временами
С 19-го 00 UTC до 19-го 06 UTC
Видимость: 2100 м
Рассеянная облачность на высоте 700 фута
дымка

TAF: UKHH 182310Z 1900/1924 16005MPS 6000 BKN013 TX14/1912Z TN01/1903Z TEMPO 1900/1906 2100 BR BKN007

Метеонаблюдения и прогнозы для более 4000 аэропортов (сводки METAR и TAF).

Имеющиеся станции представлены на карте желтыми и красными точками.

Чтобы увидеть название станции, наведите на нее мышь.

Затем щелкните, чтобы увидеть метеонаблюдения и метеопрогнозы.

Управление картой: чтобы увеличить масштаб, щелкните зеленые кнопки с черным крестиком; чтобы уменьшить масштаб, щелкните зеленую кнопку с тире; для просмотра соседних карт щелкайте зеленые стрелки.


METAR-TAF: